createdAt,value
2022-12-05T00:00:16.760Z,18.00
2022-12-05T00:03:06.828Z,17.00
2022-12-05T00:05:35.332Z,18.33
2022-12-05T00:08:04.251Z,17.25
2022-12-05T00:10:32.569Z,16.25
2022-12-05T00:13:01.328Z,17.25
2022-12-05T00:15:29.770Z,17.25
2022-12-05T00:17:58.409Z,18.00
2022-12-05T00:20:26.860Z,17.00
2022-12-05T00:22:56.608Z,17.25
2022-12-05T00:25:24.932Z,18.00
2022-12-05T00:27:53.589Z,17.00
2022-12-05T00:30:22.083Z,17.00
2022-12-05T00:32:52.210Z,18.00
2022-12-05T00:35:20.540Z,17.25
2022-12-05T00:37:49.280Z,17.00
2022-12-05T00:40:17.848Z,17.00
2022-12-05T00:42:52.000Z,17.25
2022-12-05T00:45:21.129Z,17.00
2022-12-05T00:47:49.789Z,17.25
2022-12-05T00:50:18.240Z,17.00
2022-12-05T00:52:47.219Z,18.25
2022-12-05T00:55:15.649Z,17.00
2022-12-05T00:57:45.557Z,18.33
2022-12-05T01:00:14.460Z,18.00
2022-12-05T01:02:44.737Z,16.00
2022-12-05T01:05:13.101Z,18.00
2022-12-05T01:07:41.930Z,18.00
2022-12-05T01:10:10.460Z,18.00
2022-12-05T01:12:39.089Z,18.00
2022-12-05T01:15:09.229Z,16.25
2022-12-05T01:17:38.208Z,17.50
2022-12-05T01:20:08.406Z,16.00
2022-12-05T01:22:37.086Z,17.00
2022-12-05T01:25:05.769Z,16.25
2022-12-05T01:27:34.436Z,17.25
2022-12-05T01:30:02.695Z,15.50
2022-12-05T01:32:31.886Z,16.00
2022-12-05T01:35:00.917Z,15.50
2022-12-05T01:37:29.458Z,17.33
2022-12-05T01:39:57.967Z,16.00
2022-12-05T01:42:27.556Z,17.00
2022-12-05T01:45:02.627Z,16.00
2022-12-05T01:47:36.438Z,17.00
2022-12-05T01:50:05.844Z,16.00
2022-12-05T01:52:35.596Z,16.00
2022-12-05T01:55:09.727Z,16.25
2022-12-05T01:57:38.875Z,17.00
2022-12-05T02:00:13.257Z,17.00
2022-12-05T02:02:47.332Z,17.00
2022-12-05T02:05:22.988Z,17.00
2022-12-05T02:07:52.823Z,16.25
2022-12-05T02:10:23.110Z,16.00
2022-12-05T02:12:52.396Z,16.00
2022-12-05T02:15:37.225Z,16.25
2022-12-05T02:18:28.579Z,16.25
2022-12-05T02:21:18.956Z,15.67
2022-12-05T02:23:54.705Z,15.25
2022-12-05T02:26:40.925Z,16.00
2022-12-05T02:29:22.836Z,16.00
2022-12-05T02:32:06.425Z,16.00
2022-12-05T02:34:57.547Z,16.25
2022-12-05T02:37:32.704Z,16.25
2022-12-05T02:40:08.596Z,18.25
2022-12-05T02:43:17.694Z,16.25
2022-12-05T02:45:49.649Z,16.00
2022-12-05T02:48:19.345Z,15.00
2022-12-05T02:50:49.575Z,16.00
2022-12-05T02:53:19.265Z,16.25
2022-12-05T02:55:48.436Z,15.33
2022-12-05T02:58:24.059Z,16.00
2022-12-05T03:00:57.244Z,16.00
2022-12-05T03:03:26.877Z,16.25
2022-12-05T03:06:01.595Z,16.00
2022-12-05T03:08:38.334Z,15.25
2022-12-05T03:11:07.678Z,16.00
2022-12-05T03:13:45.856Z,14.25
2022-12-05T03:16:24.901Z,14.50
2022-12-05T03:18:59.767Z,16.00
2022-12-05T03:21:28.196Z,17.00
2022-12-05T03:24:01.615Z,15.00
2022-12-05T03:26:56.391Z,14.33
2022-12-05T03:29:57.291Z,16.00
2022-12-05T03:32:31.488Z,16.25
2022-12-05T03:35:23.627Z,16.50
2022-12-05T03:38:00.208Z,15.25
2022-12-05T03:40:54.418Z,15.50
2022-12-05T03:43:47.273Z,16.00
2022-12-05T03:46:23.102Z,15.33
2022-12-05T03:49:26.892Z,15.25
2022-12-05T03:52:07.695Z,15.33
2022-12-05T03:54:41.197Z,15.00
2022-12-05T03:57:36.168Z,15.25
2022-12-05T04:00:15.238Z,15.50
2022-12-05T04:03:00.834Z,14.50
2022-12-05T04:05:36.137Z,16.00
2022-12-05T04:08:16.874Z,15.00
2022-12-05T04:10:50.354Z,17.00
2022-12-05T04:13:24.498Z,15.00
2022-12-05T04:16:18.047Z,15.00
2022-12-05T04:19:12.349Z,14.00
2022-12-05T04:21:47.117Z,14.00
2022-12-05T04:24:55.937Z,14.00
2022-12-05T04:27:41.637Z,14.00
2022-12-05T04:30:14.108Z,15.00
2022-12-05T04:32:51.857Z,15.00
2022-12-05T04:35:40.166Z,16.00
2022-12-05T04:38:15.934Z,14.00
2022-12-05T04:40:54.567Z,14.25
2022-12-05T04:43:24.317Z,14.00
2022-12-05T04:45:55.138Z,14.00
2022-12-05T04:48:26.428Z,15.00
2022-12-05T04:50:56.597Z,15.00
2022-12-05T04:53:27.777Z,14.25
2022-12-05T04:55:58.887Z,14.00
2022-12-05T04:58:28.440Z,15.00
2022-12-05T05:01:20.324Z,15.00
2022-12-05T05:04:08.364Z,14.25
2022-12-05T05:06:38.802Z,14.00
2022-12-05T05:09:07.533Z,14.00
2022-12-05T05:11:38.373Z,14.75
2022-12-05T05:14:06.874Z,13.50
2022-12-05T05:16:39.580Z,13.00
2022-12-05T05:19:09.463Z,14.00
2022-12-05T05:21:40.810Z,13.00
2022-12-05T05:24:10.970Z,14.00
2022-12-05T05:26:41.672Z,14.25
2022-12-05T05:29:11.395Z,13.00
2022-12-05T05:31:40.945Z,13.25
2022-12-05T05:34:11.040Z,13.50
2022-12-05T05:36:39.743Z,13.25
2022-12-05T05:39:15.489Z,13.00
2022-12-05T05:41:44.739Z,13.00
2022-12-05T05:44:13.015Z,13.25
2022-12-05T05:46:41.682Z,15.00
2022-12-05T05:49:10.962Z,13.25
2022-12-05T05:51:39.616Z,14.25
2022-12-05T05:54:07.933Z,13.25
2022-12-05T05:56:36.631Z,14.25
2022-12-05T05:59:04.852Z,14.00
2022-12-05T06:01:33.459Z,14.00
2022-12-05T06:04:01.835Z,14.00
2022-12-05T06:06:30.592Z,14.00
2022-12-05T06:08:58.965Z,13.00
2022-12-05T06:11:29.351Z,13.25
2022-12-05T06:14:01.415Z,13.00
2022-12-05T06:16:31.619Z,13.25
2022-12-05T06:19:00.024Z,13.25
2022-12-05T06:21:28.791Z,13.00
2022-12-05T06:23:58.352Z,13.25
2022-12-05T06:26:26.973Z,13.00
2022-12-05T06:28:55.323Z,13.25
2022-12-05T06:31:28.629Z,13.25
2022-12-05T06:34:01.822Z,14.33
2022-12-05T06:36:31.083Z,13.25
2022-12-05T06:39:00.244Z,13.25
2022-12-05T06:41:30.176Z,13.00
2022-12-05T06:44:02.264Z,12.25
2022-12-05T06:46:33.132Z,13.25
2022-12-05T06:49:02.500Z,13.00
2022-12-05T06:51:31.297Z,13.00
2022-12-05T06:53:59.601Z,12.00
2022-12-05T06:56:29.045Z,13.00
2022-12-05T06:58:57.443Z,13.00
2022-12-05T07:01:42.496Z,13.33
2022-12-05T07:04:21.203Z,13.00
2022-12-05T07:06:51.405Z,13.00
2022-12-05T07:09:22.933Z,13.25
2022-12-05T07:11:52.215Z,13.25
2022-12-05T07:17:09.911Z,14.00
2022-12-05T07:19:38.214Z,14.00
2022-12-05T07:22:12.045Z,13.25
2022-12-05T07:24:45.697Z,13.00
2022-12-05T07:27:15.533Z,14.00
2022-12-05T07:29:43.900Z,14.00
2022-12-05T07:32:13.895Z,13.25
2022-12-05T07:34:42.531Z,13.00
2022-12-05T07:37:11.346Z,13.00
2022-12-05T07:39:39.646Z,12.50
2022-12-05T07:42:09.071Z,15.00
2022-12-05T07:44:37.630Z,14.00
2022-12-05T07:47:07.252Z,13.25
2022-12-05T07:49:35.532Z,14.00
2022-12-05T07:52:05.152Z,14.00
2022-12-05T07:54:33.886Z,14.00
2022-12-05T07:57:02.452Z,14.00
2022-12-05T07:59:30.972Z,13.00
2022-12-05T08:01:59.575Z,13.50
2022-12-05T08:04:27.972Z,14.25
2022-12-05T08:06:56.626Z,15.25
2022-12-05T08:09:24.981Z,14.00
2022-12-05T08:11:53.725Z,14.00
2022-12-05T08:14:22.032Z,13.00
2022-12-05T08:16:50.679Z,13.00
2022-12-05T08:19:19.386Z,14.00
2022-12-05T08:21:48.616Z,14.00
2022-12-05T08:24:16.910Z,13.00
2022-12-05T08:26:45.554Z,14.25
2022-12-05T08:29:15.760Z,13.00
2022-12-05T08:31:50.091Z,15.00
2022-12-05T08:34:20.384Z,14.00
2022-12-05T08:36:49.561Z,13.00
2022-12-05T08:39:19.933Z,13.25
2022-12-05T08:41:50.591Z,15.00
2022-12-05T08:44:19.046Z,13.75
2022-12-05T08:46:50.528Z,14.25
2022-12-05T08:49:19.542Z,13.00
2022-12-05T08:51:48.492Z,13.00
2022-12-05T08:54:17.566Z,13.33
2022-12-05T08:56:51.810Z,15.00
2022-12-05T08:59:20.413Z,14.25
2022-12-05T09:01:51.226Z,13.00
2022-12-05T09:04:19.689Z,13.00
2022-12-05T09:06:48.209Z,13.25
2022-12-05T09:09:16.788Z,13.00
2022-12-05T09:11:51.575Z,14.00
2022-12-05T09:14:20.015Z,13.25
2022-12-05T09:16:48.782Z,13.00
2022-12-05T09:19:21.127Z,12.50
2022-12-05T09:21:49.778Z,13.25
2022-12-05T09:24:18.084Z,13.00
2022-12-05T09:26:47.598Z,12.50
2022-12-05T09:29:17.529Z,13.25
2022-12-05T09:31:49.160Z,13.25
2022-12-05T09:34:18.656Z,14.00
2022-12-05T09:37:01.345Z,14.33
2022-12-05T09:39:39.019Z,13.50
2022-12-05T09:42:10.506Z,13.25
2022-12-05T09:45:08.792Z,14.00
2022-12-05T09:48:09.112Z,13.25
2022-12-05T09:50:46.431Z,14.00
2022-12-05T09:53:20.926Z,13.75
2022-12-05T09:55:53.343Z,14.00
2022-12-05T09:58:33.483Z,14.00
2022-12-05T10:01:24.708Z,14.00
2022-12-05T10:04:11.164Z,14.25
2022-12-05T10:06:44.003Z,13.00
2022-12-05T10:09:31.322Z,15.25
2022-12-05T10:12:31.372Z,14.25
2022-12-05T10:15:27.831Z,15.25
2022-12-05T10:18:12.902Z,14.25
2022-12-05T10:20:52.623Z,14.33
2022-12-05T10:26:21.554Z,14.33
2022-12-05T10:29:08.665Z,14.00
2022-12-05T10:31:39.906Z,14.00
2022-12-05T10:34:21.995Z,14.00
2022-12-05T10:37:17.670Z,15.25
2022-12-05T10:39:47.330Z,14.00
2022-12-05T10:42:26.029Z,14.00
2022-12-05T10:44:58.507Z,14.50
2022-12-05T10:47:27.683Z,14.33
2022-12-05T10:49:59.231Z,13.00
2022-12-05T10:52:28.012Z,13.00
2022-12-05T10:55:01.348Z,14.25
2022-12-05T10:57:30.882Z,14.00
2022-12-05T11:00:14.685Z,14.25
2022-12-05T11:02:51.103Z,14.00
2022-12-05T11:05:30.766Z,13.00
2022-12-05T11:08:00.062Z,14.25
2022-12-05T11:10:28.823Z,14.67
2022-12-05T11:12:59.791Z,14.25
2022-12-05T11:15:31.084Z,13.00
2022-12-05T11:18:29.150Z,14.33
2022-12-05T11:21:09.496Z,13.75
2022-12-05T11:23:40.003Z,13.25
2022-12-05T11:26:36.041Z,13.00
2022-12-05T11:29:04.947Z,13.00
2022-12-05T11:31:33.602Z,13.25
2022-12-05T11:34:21.118Z,13.00
2022-12-05T11:36:56.761Z,14.00
2022-12-05T11:39:25.941Z,14.25
2022-12-05T11:42:06.649Z,12.50
2022-12-05T11:45:00.160Z,13.33
2022-12-05T11:47:46.772Z,13.25
2022-12-05T11:50:26.365Z,13.00
2022-12-05T11:53:31.901Z,14.25
2022-12-05T11:56:19.264Z,14.50
2022-12-05T11:59:08.689Z,13.00
2022-12-05T12:02:11.800Z,14.00
2022-12-05T12:05:08.064Z,13.33
2022-12-05T12:07:55.648Z,14.00
2022-12-05T12:10:33.143Z,14.25
2022-12-05T12:13:08.798Z,13.00
2022-12-05T12:16:08.077Z,13.25
2022-12-05T12:18:48.623Z,14.00
2022-12-05T12:21:19.793Z,13.25
2022-12-05T12:24:26.778Z,13.25
2022-12-05T12:27:27.313Z,13.00
2022-12-05T12:30:08.332Z,13.00
2022-12-05T12:32:55.926Z,14.00
2022-12-05T12:35:54.683Z,13.33
2022-12-05T12:38:28.378Z,14.33
2022-12-05T12:41:16.157Z,14.00
2022-12-05T12:43:56.918Z,14.00
2022-12-05T12:46:44.169Z,13.25
2022-12-05T12:49:32.046Z,12.25
2022-12-05T12:52:05.186Z,12.25
2022-12-05T12:55:02.377Z,12.00
2022-12-05T12:57:44.317Z,12.25
2022-12-05T13:00:34.364Z,12.00
2022-12-05T13:03:25.509Z,13.00
2022-12-05T13:06:01.961Z,12.00
2022-12-05T13:08:42.669Z,12.75
2022-12-05T13:11:14.280Z,12.00
2022-12-05T13:13:56.567Z,12.00
2022-12-05T13:16:33.392Z,13.00
2022-12-05T13:19:03.550Z,12.00
2022-12-05T13:21:32.214Z,12.00
2022-12-05T13:24:03.936Z,13.25
2022-12-05T13:26:37.517Z,12.25
2022-12-05T13:29:06.369Z,12.00
2022-12-05T13:31:43.929Z,11.00
2022-12-05T13:34:35.575Z,11.25
2022-12-05T13:37:34.885Z,12.00
2022-12-05T13:40:24.851Z,12.50
2022-12-05T13:43:02.240Z,12.00
2022-12-05T13:45:33.189Z,11.25
2022-12-05T13:48:01.738Z,11.25
2022-12-05T13:50:52.231Z,11.33
2022-12-05T13:53:29.307Z,11.00
2022-12-05T13:56:04.587Z,11.00
2022-12-05T13:58:45.291Z,11.00
2022-12-05T14:01:31.147Z,11.25
2022-12-05T14:04:03.690Z,11.00
2022-12-05T14:06:35.291Z,11.25
2022-12-05T14:09:10.829Z,11.25
2022-12-05T14:11:39.617Z,11.00
2022-12-05T14:14:10.985Z,11.00
2022-12-05T14:16:44.796Z,11.25
2022-12-05T14:19:22.018Z,11.50
2022-12-05T14:22:17.737Z,12.00
2022-12-05T14:25:57.369Z,11.25
2022-12-05T14:29:02.762Z,11.00
2022-12-05T14:31:52.207Z,11.00
2022-12-05T14:34:22.571Z,11.00
2022-12-05T14:37:16.031Z,11.00
2022-12-05T14:39:44.758Z,11.00
2022-12-05T14:42:42.495Z,11.00
2022-12-05T14:45:25.768Z,11.25
2022-12-05T14:48:02.447Z,12.00
2022-12-05T14:50:35.150Z,11.00
2022-12-05T14:53:15.623Z,11.00
2022-12-05T14:56:01.411Z,11.00
2022-12-05T14:58:32.986Z,11.00
2022-12-05T15:01:09.396Z,11.00
2022-12-05T15:03:56.609Z,11.00
2022-12-05T15:06:27.617Z,12.00
2022-12-05T15:09:14.599Z,11.33
2022-12-05T15:11:46.677Z,11.25
2022-12-05T15:14:23.395Z,11.00
2022-12-05T15:16:54.761Z,11.33
2022-12-05T15:19:30.608Z,12.00
2022-12-05T15:22:03.155Z,11.25
2022-12-05T15:24:38.688Z,11.33
2022-12-05T15:27:12.058Z,11.25
2022-12-05T15:29:41.524Z,12.00
2022-12-05T15:32:13.557Z,11.25
2022-12-05T15:34:59.002Z,11.00
2022-12-05T15:37:49.063Z,12.25
2022-12-05T15:40:22.224Z,12.00
2022-12-05T15:42:57.575Z,13.00
2022-12-05T15:45:30.485Z,12.25
2022-12-05T15:48:08.374Z,11.33
2022-12-05T15:50:43.526Z,12.00
2022-12-05T15:53:25.284Z,12.00
2022-12-05T15:56:08.976Z,11.00
2022-12-05T15:59:24.996Z,11.00
2022-12-05T16:02:03.576Z,11.25
2022-12-05T16:04:39.934Z,11.00
2022-12-05T16:07:10.735Z,11.00
2022-12-05T16:09:42.863Z,12.50
2022-12-05T16:12:31.945Z,11.75
2022-12-05T16:15:21.499Z,11.00
2022-12-05T16:17:57.783Z,11.00
2022-12-05T16:20:33.351Z,12.00
2022-12-05T16:23:33.455Z,12.00
2022-12-05T16:26:14.010Z,12.00
2022-12-05T16:28:42.230Z,11.00
2022-12-05T16:31:17.937Z,12.00
2022-12-05T16:33:46.614Z,12.00
2022-12-05T16:36:22.023Z,12.00
2022-12-05T16:38:50.329Z,13.00
2022-12-05T16:41:19.743Z,12.00
2022-12-05T16:43:48.395Z,11.00
2022-12-05T16:46:18.488Z,12.00
2022-12-05T16:48:49.465Z,12.25
2022-12-05T16:51:26.213Z,12.25
2022-12-05T16:53:56.823Z,12.25
2022-12-05T16:56:32.964Z,13.00
2022-12-05T16:59:06.173Z,13.00
2022-12-05T17:01:39.094Z,16.00
2022-12-05T17:04:11.502Z,14.00
2022-12-05T17:06:41.595Z,14.25
2022-12-05T17:09:10.013Z,15.25
2022-12-05T17:11:42.047Z,16.00
2022-12-05T17:14:15.364Z,17.00
2022-12-05T17:16:44.466Z,17.00
2022-12-05T17:19:13.214Z,16.25
2022-12-05T17:21:42.981Z,16.00
2022-12-05T17:24:18.959Z,15.00
2022-12-05T17:26:48.320Z,14.00
2022-12-05T17:29:16.729Z,16.00
2022-12-05T17:31:45.797Z,15.00
2022-12-05T17:34:16.660Z,15.00
2022-12-05T17:36:47.381Z,15.00
2022-12-05T17:39:15.724Z,15.25
2022-12-05T17:41:45.622Z,15.00
2022-12-05T17:44:15.165Z,15.25
2022-12-05T17:46:44.706Z,14.00
2022-12-05T17:49:14.290Z,14.00
2022-12-05T17:52:05.519Z,15.00
2022-12-05T17:54:32.531Z,15.25
2022-12-05T17:57:01.373Z,15.00
2022-12-05T17:59:29.909Z,16.33
2022-12-05T18:01:58.691Z,16.25
2022-12-05T18:04:27.100Z,16.00
2022-12-05T18:06:55.917Z,15.00
2022-12-05T18:09:24.427Z,16.50
2022-12-05T18:11:53.617Z,16.50
2022-12-05T18:14:21.895Z,16.00
2022-12-05T18:16:50.630Z,16.00
2022-12-05T18:19:19.124Z,16.25
2022-12-05T18:21:47.752Z,16.33
2022-12-05T18:24:16.408Z,16.00
2022-12-05T18:26:44.993Z,15.75
2022-12-05T18:29:13.333Z,15.25
2022-12-05T18:31:43.176Z,16.00
2022-12-05T18:34:11.654Z,16.00
2022-12-05T18:36:41.230Z,16.25
2022-12-05T18:39:15.433Z,16.50
2022-12-05T18:41:44.249Z,15.00
2022-12-05T18:44:13.390Z,15.00
2022-12-05T18:46:42.460Z,15.25
2022-12-05T18:49:13.556Z,15.00
2022-12-05T18:51:42.320Z,15.00
2022-12-05T18:54:10.899Z,13.33
2022-12-05T18:56:43.360Z,15.00
2022-12-05T18:59:17.196Z,15.33
2022-12-05T19:01:46.629Z,14.50
2022-12-05T19:04:17.875Z,14.00
2022-12-05T19:06:53.541Z,15.00
2022-12-05T19:09:23.974Z,14.00
2022-12-05T19:11:55.357Z,14.00
2022-12-05T19:14:25.254Z,14.50
2022-12-05T19:16:59.834Z,14.00
2022-12-05T19:19:29.575Z,15.00
2022-12-05T19:21:59.398Z,14.00
2022-12-05T19:24:27.792Z,15.00
2022-12-05T19:26:56.557Z,16.00
2022-12-05T19:29:25.021Z,14.00
2022-12-05T19:31:53.787Z,14.25
2022-12-05T19:34:24.579Z,14.00
2022-12-05T19:36:53.360Z,14.00
2022-12-05T19:39:26.788Z,14.33
2022-12-05T19:41:59.096Z,14.00
2022-12-05T19:44:28.803Z,14.25
2022-12-05T19:46:57.609Z,15.00
2022-12-05T19:49:46.599Z,14.00
2022-12-05T19:52:34.896Z,14.00
2022-12-05T19:55:03.275Z,15.00
2022-12-05T19:57:32.160Z,16.00
2022-12-05T20:00:00.892Z,16.00
2022-12-05T20:02:31.846Z,15.25
2022-12-05T20:05:00.332Z,17.50
2022-12-05T20:07:29.450Z,16.00
2022-12-05T20:09:58.161Z,16.00
2022-12-05T20:12:27.063Z,15.25
2022-12-05T20:14:57.717Z,15.00
2022-12-05T20:17:26.717Z,14.00
2022-12-05T20:19:55.942Z,15.00
2022-12-05T20:22:27.437Z,15.25
2022-12-05T20:24:55.846Z,16.25
2022-12-05T20:27:24.597Z,14.00
2022-12-05T20:29:52.810Z,15.25
2022-12-05T20:32:21.461Z,15.25
2022-12-05T20:34:50.108Z,15.25
2022-12-05T20:37:18.777Z,15.00
2022-12-05T20:39:47.853Z,15.00
2022-12-05T20:42:16.734Z,16.00
2022-12-05T20:44:45.211Z,15.25
2022-12-05T20:47:15.420Z,15.00
2022-12-05T20:49:43.832Z,16.00
2022-12-05T20:52:12.740Z,16.50
2022-12-05T20:54:41.131Z,15.00
2022-12-05T20:57:09.964Z,16.00
2022-12-05T20:59:38.485Z,14.00
2022-12-05T21:02:07.898Z,16.00
2022-12-05T21:04:40.863Z,14.00
2022-12-05T21:07:09.554Z,14.50
2022-12-05T21:09:37.893Z,16.00
2022-12-05T21:12:06.679Z,16.00
2022-12-05T21:14:35.117Z,15.50
2022-12-05T21:17:05.041Z,15.00
2022-12-05T21:19:33.800Z,15.00
2022-12-05T21:22:02.620Z,16.25
2022-12-05T21:24:31.179Z,16.00
2022-12-05T21:26:59.974Z,16.00
2022-12-05T21:29:28.314Z,16.67
2022-12-05T21:31:56.969Z,16.00
2022-12-05T21:34:25.280Z,15.00
2022-12-05T21:36:54.160Z,14.00
2022-12-05T21:39:22.620Z,15.00
2022-12-05T21:41:52.526Z,14.00
2022-12-05T21:44:21.791Z,16.00
2022-12-05T21:46:51.136Z,14.25
2022-12-05T21:49:19.763Z,15.00
2022-12-05T21:51:49.742Z,15.25
2022-12-05T21:54:18.195Z,16.00
2022-12-05T21:56:48.092Z,16.25
2022-12-05T21:59:16.475Z,16.25
2022-12-05T22:01:46.759Z,16.25
2022-12-05T22:04:15.245Z,15.25
2022-12-05T22:06:43.944Z,14.50
2022-12-05T22:09:12.492Z,16.00
2022-12-05T22:11:42.375Z,15.00
2022-12-05T22:14:10.779Z,16.00
2022-12-05T22:16:39.685Z,16.00
2022-12-05T22:19:08.797Z,14.00
2022-12-05T22:21:37.434Z,15.25
2022-12-05T22:24:05.885Z,15.25
2022-12-05T22:26:35.834Z,15.25
2022-12-05T22:29:04.116Z,15.00
2022-12-05T22:31:33.004Z,16.25
2022-12-05T22:34:01.546Z,14.25
2022-12-05T22:36:30.175Z,17.50
2022-12-05T22:38:58.623Z,15.00
2022-12-05T22:41:27.444Z,16.00
2022-12-05T22:43:57.976Z,15.00
2022-12-05T22:46:28.170Z,15.25
2022-12-05T22:48:57.529Z,15.50
2022-12-05T22:51:27.639Z,15.25
2022-12-05T22:53:56.665Z,15.00
2022-12-05T22:56:27.347Z,15.25
2022-12-05T22:58:58.077Z,15.00
2022-12-05T23:01:29.966Z,15.25
2022-12-05T23:04:04.007Z,14.00
2022-12-05T23:06:34.735Z,16.00
2022-12-05T23:09:05.515Z,16.00
2022-12-05T23:11:34.733Z,16.00
2022-12-05T23:14:03.446Z,15.00
2022-12-05T23:16:34.263Z,15.50
2022-12-05T23:19:05.350Z,16.00
2022-12-05T23:21:37.206Z,14.25
2022-12-05T23:24:09.025Z,16.25
2022-12-05T23:26:41.541Z,16.00
2022-12-05T23:29:12.995Z,16.00
2022-12-05T23:31:42.764Z,14.33
2022-12-05T23:34:12.233Z,16.25
2022-12-05T23:36:41.005Z,16.00
2022-12-05T23:39:09.573Z,15.50
2022-12-05T23:41:38.314Z,15.00
2022-12-05T23:44:06.606Z,14.00
2022-12-05T23:46:35.529Z,15.00
2022-12-05T23:49:04.100Z,15.25
2022-12-05T23:51:34.304Z,16.00
2022-12-05T23:54:03.193Z,16.25
2022-12-05T23:56:33.813Z,16.25
2022-12-05T23:59:04.754Z,15.33
